Time;durP1;ratioP1;P1;durP2;ratioP2;P2;SDS_P1;SDS_P2;PMS_P1;PMS_P2;Temp;Humidity;BMP_temperature;BMP_pressure;BME280_temperature;BME280_humidity;BME280_pressure;Samples;Min_cycle;Max_cycle;Signal;HPM_P1;HPM_P2
2022/11/04 00:00:22;;;;;;;2.47;1.15;;;;;;;19.03;56.60;99869.81;5144136;28;20062;-43
2022/11/04 00:02:48;;;;;;;1.50;1.25;;;;;;;19.01;56.49;99875.41;5128733;27;20027;-45
2022/11/04 00:05:13;;;;;;;0.90;0.90;;;;;;;18.99;56.37;99888.25;5126787;27;20086;-43
2022/11/04 00:12:23;;;;;;;1.63;1.15;;;;;;;19.00;56.79;99892.59;5141701;27;20025;-45
2022/11/04 00:13:07;;;;;;;1.58;1.30;;;;;;;19.00;56.44;99900.69;5131629;27;20033;-43
2022/11/04 00:18:36;;;;;;;1.30;1.20;;;;;;;19.00;56.45;99916.03;5084701;28;20063;-46
2022/11/04 00:29:13;;;;;;;1.30;1.10;;;;;;;18.97;56.78;99930.69;5095698;28;20443;-44
2022/11/04 00:34:22;;;;;;;0.95;0.80;;;;;;;18.95;56.45;99930.91;5104200;28;20031;-48
2022/11/04 00:36:47;;;;;;;1.13;1.02;;;;;;;18.95;56.64;99930.91;5104621;28;20295;-44
2022/11/04 00:39:12;;;;;;;2.42;1.77;;;;;;;18.95;56.31;99935.47;5104358;28;20036;-45
2022/11/04 00:41:37;;;;;;;1.10;0.90;;;;;;;18.89;56.53;99914.66;5104132;28;20079;-46
2022/11/04 00:44:03;;;;;;;0.80;0.80;;;;;;;18.94;56.33;99934.59;5104078;28;20781;-47
2022/11/04 00:46:30;;;;;;;1.63;0.95;;;;;;;18.94;56.71;99934.59;5103916;28;20047;-42
2022/11/04 00:48:56;;;;;;;2.33;1.10;;;;;;;18.94;56.37;99939.16;5103887;28;20106;-42
2022/11/04 00:51:22;;;;;;;2.30;1.50;;;;;;;18.94;56.39;99952.63;5104408;28;20434;-42
2022/11/04 00:53:47;;;;;;;1.67;1.10;;;;;;;18.93;56.75;99959.88;5126687;28;20032;-43
2022/11/04 00:56:12;;;;;;;1.33;1.10;;;;;;;18.93;56.67;99962.56;5127253;28;20484;-43
2022/11/04 00:58:38;;;;;;;1.02;0.98;;;;;;;18.87;56.73;99957.97;5127004;28;20035;-46
2022/11/04 01:01:08;;;;;;;1.60;1.00;;;;;;;18.81;56.39;99950.63;5146482;27;20023;-45
2022/11/04 01:03:33;;;;;;;1.45;1.23;;;;;;;18.90;56.51;99967.50;5133074;27;20031;-47
2022/11/04 01:05:58;;;;;;;1.48;1.10;;;;;;;18.91;56.61;99972.72;5133428;27;20027;-46
2022/11/04 01:08:23;;;;;;;1.02;0.95;;;;;;;18.79;56.54;99954.56;5142826;27;20023;-48
2022/11/04 01:10:49;;;;;;;1.38;1.05;;;;;;;18.90;56.76;99975.59;5139233;27;20031;-42
2022/11/04 01:13:14;;;;;;;1.27;1.00;;;;;;;18.90;56.32;99979.13;5131936;27;20026;-47
2022/11/04 01:15:39;;;;;;;0.70;0.70;;;;;;;18.90;56.57;99973.75;5140611;27;20032;-44
2022/11/04 01:18:05;;;;;;;1.48;1.13;;;;;;;18.89;56.80;99985.53;5126381;28;20047;-43
2022/11/04 01:20:31;;;;;;;1.40;0.90;;;;;;;18.88;56.43;99983.88;5126662;28;20024;-43
2022/11/04 01:22:57;;;;;;;0.95;0.80;;;;;;;18.89;56.27;99984.69;5143722;27;20052;-47
2022/11/04 01:25:22;;;;;;;1.40;1.02;;;;;;;18.88;56.27;99997.34;5134273;27;20027;-43
2022/11/04 01:27:47;;;;;;;1.20;1.05;;;;;;;18.88;56.19;99988.41;5124906;28;20066;-45
2022/11/04 01:30:12;;;;;;;0.98;0.80;;;;;;;18.87;56.42;99990.28;5126198;28;20028;-45
2022/11/04 01:32:38;;;;;;;0.80;0.80;;;;;;;18.80;56.52;99977.75;5126712;28;20066;-44
2022/11/04 01:35:04;;;;;;;1.08;1.00;;;;;;;18.86;56.36;99995.84;5137082;27;20045;-43
2022/11/04 01:37:29;;;;;;;0.95;0.90;;;;;;;18.84;56.60;99996.03;5146969;27;20072;-43
2022/11/04 01:39:54;;;;;;;1.02;0.90;;;;;;;18.85;56.33;99995.00;5147129;27;20035;-46
2022/11/04 01:42:21;;;;;;;1.13;1.00;;;;;;;18.77;56.67;99994.28;5136161;27;20019;-47
2022/11/04 01:44:52;;;;;;;1.45;1.10;;;;;;;18.85;56.62;100004.94;5129580;27;20083;-47
2022/11/04 01:47:18;;;;;;;0.82;0.82;;;;;;;18.84;56.35;100008.69;5145539;27;20558;-44
2022/11/04 01:49:48;;;;;;;2.08;1.23;;;;;;;18.84;56.55;99997.91;5142170;27;20031;-48
2022/11/04 01:52:23;;;;;;;1.25;1.00;;;;;;;18.83;56.63;100005.16;5142578;27;20094;-47
2022/11/04 01:54:49;;;;;;;1.08;1.00;;;;;;;18.83;56.31;99996.25;5137964;27;20027;-47
2022/11/04 01:57:24;;;;;;;2.40;1.65;;;;;;;18.65;56.33;99986.69;5124459;28;20034;-46
2022/11/04 01:59:49;;;;;;;1.48;1.02;;;;;;;18.79;56.57;100009.25;5124289;28;20023;-50
2022/11/04 02:02:15;;;;;;;1.10;0.90;;;;;;;18.82;56.38;100019.66;5126055;28;20084;-45
2022/11/04 02:04:41;;;;;;;2.45;1.10;;;;;;;18.81;56.31;100020.66;5125535;28;20024;-45
2022/11/04 02:07:09;;;;;;;1.38;0.90;;;;;;;18.81;56.59;100033.28;5142396;27;20039;-43
2022/11/04 02:09:35;;;;;;;1.55;0.98;;;;;;;18.81;56.61;100036.81;5142759;27;20023;-48
2022/11/04 02:14:46;;;;;;;1.13;0.88;;;;;;;18.79;56.21;100052.34;5127662;27;20039;-47
2022/11/04 02:17:43;;;;;;;1.33;1.23;;;;;;;18.78;56.52;100050.69;5124471;28;20034;-47
2022/11/04 02:20:11;;;;;;;0.98;0.90;;;;;;;18.79;56.40;100062.28;5138339;27;20030;-45
2022/11/04 02:23:08;;;;;;;1.10;0.90;;;;;;;18.77;56.29;100065.13;5146082;27;20034;-45
2022/11/04 02:26:12;;;;;;;1.00;1.00;;;;;;;18.77;56.28;100069.69;5135210;27;20028;-45
2022/11/04 02:29:11;;;;;;;0.80;0.77;;;;;;;18.76;56.23;100076.09;5125032;28;20035;-43
2022/11/04 02:31:46;;;;;;;;;;;;;;;18.76;56.08;100071.56;5129431;27;20019;-46
2022/11/04 02:34:29;;;;;;;1.38;0.93;;;;;;;18.69;56.32;100074.19;5144355;27;19912;-48
2022/11/04 02:37:19;;;;;;;1.25;0.90;;;;;;;18.73;56.17;100088.09;5144531;27;20027;-49
2022/11/04 02:39:50;;;;;;;1.02;0.93;;;;;;;18.68;56.35;100083.22;5126262;27;20084;-46
2022/11/04 02:42:22;;;;;;;1.02;0.93;;;;;;;18.71;56.19;100100.91;5124000;28;20499;-43
2022/11/04 02:45:05;;;;;;;1.02;0.90;;;;;;;18.70;56.11;100093.88;5143794;27;20042;-46
2022/11/04 02:47:32;;;;;;;1.65;0.90;;;;;;;18.71;56.51;100101.75;5143870;27;20038;-46
2022/11/04 02:50:04;;;;;;;1.10;0.88;;;;;;;18.70;56.25;100101.94;5144013;27;20513;-47
2022/11/04 02:52:38;;;;;;;1.17;0.88;;;;;;;18.68;56.20;100103.94;5144379;27;20030;-46
2022/11/04 02:55:07;;;;;;;0.88;0.80;;;;;;;18.70;56.44;100115.41;5126306;27;20024;-43
2022/11/04 02:57:34;;;;;;;1.02;0.95;;;;;;;18.69;56.34;100110.97;5123394;28;20107;-43
2022/11/04 03:00:02;;;;;;;0.88;0.75;;;;;;;18.69;56.37;100119.06;5123024;28;20020;-45
2022/11/04 03:02:32;;;;;;;0.88;0.77;;;;;;;18.68;56.11;100118.22;5125212;27;20027;-45
2022/11/04 03:04:58;;;;;;;1.08;0.80;;;;;;;18.66;56.23;100122.97;5123289;28;20031;-45
2022/11/04 03:07:27;;;;;;;1.42;0.95;;;;;;;18.62;56.51;100123.53;5119321;28;20032;-47
2022/11/04 03:09:58;;;;;;;0.98;0.95;;;;;;;18.68;56.22;100136.25;5139709;27;20045;-47
2022/11/04 03:12:28;;;;;;;1.80;0.93;;;;;;;18.68;56.08;100134.38;5143628;27;20027;-43
2022/11/04 03:14:56;;;;;;;0.90;0.80;;;;;;;18.67;56.23;100148.03;5124399;27;20023;-44
2022/11/04 03:17:41;;;;;;;0.70;0.70;;;;;;;18.67;56.32;100140.81;5144120;27;20026;-42
2022/11/04 03:20:12;;;;;;;0.82;0.82;;;;;;;18.66;56.30;100147.22;5132484;27;20284;-44
2022/11/04 03:22:37;;;;;;;0.73;0.73;;;;;;;18.66;56.46;100154.47;5123383;28;20034;-44
2022/11/04 03:25:04;;;;;;;1.60;0.90;;;;;;;18.65;56.08;100164.41;5134500;27;20019;-47
2022/11/04 03:27:42;;;;;;;1.02;0.93;;;;;;;18.66;56.00;100163.38;5143579;27;20518;-45
2022/11/04 03:30:16;;;;;;;1.17;0.82;;;;;;;18.63;56.37;100170.97;5134089;27;20040;-47
2022/11/04 03:32:49;;;;;;;1.25;0.80;;;;;;;18.64;56.03;100172.63;5124492;28;20023;-44
2022/11/04 03:35:15;;;;;;;1.20;0.90;;;;;;;18.64;56.22;100170.78;5135511;27;20394;-45
2022/11/04 03:37:42;;;;;;;0.80;0.80;;;;;;;18.52;56.27;100156.13;5144805;27;20027;-44
2022/11/04 03:40:08;;;;;;;1.02;0.80;;;;;;;18.58;56.11;100179.59;5144396;27;20043;-45
2022/11/04 03:42:37;;;;;;;0.90;0.70;;;;;;;18.63;56.26;100184.44;5124377;27;20049;-43
2022/11/04 03:45:02;;;;;;;1.35;0.98;;;;;;;18.62;56.20;100190.84;5121981;28;20828;-42
2022/11/04 03:47:29;;;;;;;0.73;0.73;;;;;;;18.63;55.93;100196.03;5124626;28;20063;-42
2022/11/04 03:50:05;;;;;;;1.38;1.08;;;;;;;18.62;56.19;100196.22;5124139;28;20031;-43
2022/11/04 03:52:31;;;;;;;0.93;0.90;;;;;;;18.62;55.98;100202.44;5123022;28;20027;-45
2022/11/04 03:54:56;;;;;;;0.60;0.60;;;;;;;18.62;55.84;100212.38;5123955;28;20049;-44
2022/11/04 03:57:34;;;;;;;0.80;0.80;;;;;;;18.60;56.12;100209.84;5123909;28;20043;-45
2022/11/04 04:00:06;;;;;;;0.85;0.70;;;;;;;18.61;56.13;100208.03;5131160;28;20554;-44
2022/11/04 04:02:54;;;;;;;0.75;0.70;;;;;;;18.60;56.10;100212.56;5144955;27;20031;-43
2022/11/04 04:05:23;;;;;;;0.90;0.73;;;;;;;18.60;56.16;100219.78;5142149;28;20030;-46
2022/11/04 04:07:58;;;;;;;0.82;0.73;;;;;;;18.58;56.05;100220.00;5144540;27;20046;-44
2022/11/04 04:10:42;;;;;;;0.73;0.73;;;;;;;18.58;56.00;100220.00;5122824;28;20050;-46
2022/11/04 04:13:13;;;;;;;0.60;0.60;;;;;;;18.59;56.22;100228.91;5136231;28;20141;-44
2022/11/04 04:15:45;;;;;;;2.47;1.10;;;;;;;18.57;56.19;100225.56;5122274;28;20023;-42
2022/11/04 04:18:13;;;;;;;1.27;0.80;;;;;;;18.57;55.77;100221.00;5124027;28;20054;-46
2022/11/04 04:20:40;;;;;;;1.25;0.80;;;;;;;18.55;56.09;100230.28;5139179;28;20031;-43
2022/11/04 04:27:29;;;;;;;0.73;0.73;;;;;;;18.55;56.03;100228.44;5143029;28;20046;-43
2022/11/04 04:28:40;;;;;;;1.55;1.00;;;;;;;18.55;55.88;100241.88;5122587;28;20030;-43
2022/11/04 04:31:07;;;;;;;1.15;0.82;;;;;;;18.54;55.84;100234.00;5123271;28;20083;-43
2022/11/04 04:33:32;;;;;;;0.90;0.80;;;;;;;18.43;55.85;100217.25;5122644;28;20114;-43
2022/11/04 04:35:58;;;;;;;0.80;0.80;;;;;;;18.54;56.02;100231.31;5138738;28;20027;-46
2022/11/04 04:46:48;;;;;;;1.00;0.82;;;;;;;18.42;55.96;100226.34;5126333;28;20065;-42
2022/11/04 04:49:14;;;;;;;0.57;0.57;;;;;;;18.51;56.07;100245.13;5132727;28;20024;-43
2022/11/04 04:51:42;;;;;;;0.85;0.80;;;;;;;18.51;56.00;100247.81;5138067;27;20076;-43
2022/11/04 04:54:07;;;;;;;1.02;0.90;;;;;;;18.47;56.23;100241.97;5132067;27;20023;-45
2022/11/04 04:56:33;;;;;;;0.82;0.70;;;;;;;18.48;56.12;100240.97;5139793;27;20030;-47
2022/11/04 04:58:58;;;;;;;0.80;0.80;;;;;;;18.49;56.18;100250.72;5128652;27;20034;-43
2022/11/04 05:01:23;;;;;;;0.90;0.90;;;;;;;18.49;55.73;100256.91;5125967;27;20059;-43
2022/11/04 05:03:48;;;;;;;1.23;0.80;;;;;;;18.49;56.16;100261.47;5129846;27;20050;-42
2022/11/04 05:06:14;;;;;;;1.33;0.73;;;;;;;18.48;56.15;100255.25;5128037;27;20106;-43
2022/11/04 05:08:39;;;;;;;0.80;0.73;;;;;;;18.48;56.01;100260.63;5127256;27;20024;-42
2022/11/04 05:11:04;;;;;;;0.70;0.65;;;;;;;18.49;56.25;100259.59;5137583;27;20038;-44
2022/11/04 05:13:29;;;;;;;0.80;0.80;;;;;;;18.49;56.20;100266.84;5128103;27;20047;-43
2022/11/04 05:16:06;;;;;;;0.88;0.70;;;;;;;18.48;56.25;100260.63;5127775;27;20027;-44
2022/11/04 05:18:32;;;;;;;0.77;0.70;;;;;;;18.48;56.08;100257.94;5132941;27;20019;-45
2022/11/04 05:20:57;;;;;;;0.95;0.85;;;;;;;18.48;56.28;100260.63;5127577;27;20019;-43
2022/11/04 05:23:23;;;;;;;1.17;0.90;;;;;;;18.45;56.16;100261.00;5130187;27;20079;-42
2022/11/04 05:25:48;;;;;;;0.85;0.68;;;;;;;18.48;56.34;100266.03;5126789;27;21046;-42
2022/11/04 05:28:13;;;;;;;0.60;0.60;;;;;;;18.49;56.53;100272.25;5128759;27;20023;-43
2022/11/04 05:30:39;;;;;;;0.90;0.70;;;;;;;18.48;56.26;100267.88;5129524;27;20023;-44
2022/11/04 05:33:04;;;;;;;1.20;0.70;;;;;;;18.48;56.17;100267.88;5133492;27;20031;-42
2022/11/04 05:35:29;;;;;;;0.77;0.70;;;;;;;18.40;56.24;100260.69;5130605;27;20030;-44
2022/11/04 05:37:55;;;;;;;0.70;0.70;;;;;;;18.47;56.09;100276.94;5128089;27;20038;-43
2022/11/04 05:40:21;;;;;;;0.70;0.70;;;;;;;18.41;56.42;100267.75;5137292;27;20027;-44
2022/11/04 05:42:46;;;;;;;1.90;0.90;;;;;;;18.48;56.32;100289.41;5128853;27;20031;-42
2022/11/04 05:45:11;;;;;;;0.70;0.70;;;;;;;18.47;56.35;100287.72;5127541;27;20498;-42
2022/11/04 05:47:37;;;;;;;1.17;0.80;;;;;;;18.35;56.30;100273.00;5130751;27;20050;-46
2022/11/04 05:50:02;;;;;;;0.90;0.90;;;;;;;18.47;56.17;100298.47;5128121;27;20027;-44
2022/11/04 05:52:28;;;;;;;0.80;0.80;;;;;;;18.46;56.53;100297.66;5125421;28;20059;-46
2022/11/04 05:54:53;;;;;;;1.20;0.82;;;;;;;18.47;56.19;100303.88;5135155;27;20019;-42
2022/11/04 05:57:18;;;;;;;1.38;0.90;;;;;;;18.46;56.54;100308.41;5128633;27;20029;-43
2022/11/04 05:59:44;;;;;;;0.90;0.90;;;;;;;18.46;56.56;100313.81;5127765;27;20035;-45
2022/11/04 06:02:09;;;;;;;1.33;1.02;;;;;;;18.46;56.36;100310.28;5129427;27;20075;-43
2022/11/04 06:04:34;;;;;;;1.08;0.80;;;;;;;18.45;56.32;100314.00;5132438;27;20059;-46
2022/11/04 06:06:59;;;;;;;1.25;1.10;;;;;;;18.44;56.29;100321.22;5128009;27;20027;-43
2022/11/04 06:09:37;;;;;;;2.42;1.08;;;;;;;18.43;56.71;100329.47;5129994;27;20029;-43
2022/11/04 06:12:07;;;;;;;2.07;1.57;;;;;;;18.29;56.33;100314.94;5127650;27;20046;-42
2022/11/04 06:14:32;;;;;;;1.13;1.02;;;;;;;18.45;56.65;100346.28;5135769;27;20283;-42
2022/11/04 06:16:59;;;;;;;1.88;1.10;;;;;;;18.45;56.75;100349.81;5131625;27;20023;-43
2022/11/04 06:19:24;;;;;;;2.50;1.10;;;;;;;18.43;56.46;100345.63;5131439;27;20045;-47
2022/11/04 06:21:50;;;;;;;1.33;0.98;;;;;;;18.43;56.33;100345.63;5127781;27;20044;-47
2022/11/04 06:24:15;;;;;;;1.48;1.00;;;;;;;18.42;56.50;100350.16;5125536;27;20015;-43
2022/11/04 06:26:41;;;;;;;1.65;1.20;;;;;;;18.29;56.88;100331.09;5131366;27;20031;-44
2022/11/04 06:29:06;;;;;;;2.85;1.00;;;;;;;18.41;56.79;100355.75;5132254;27;20030;-41
2022/11/04 06:31:31;;;;;;;1.63;1.20;;;;;;;18.41;56.53;100361.97;5127259;27;20023;-45
2022/11/04 06:33:56;;;;;;;3.42;1.23;;;;;;;18.40;56.69;100362.97;5124267;27;20088;-43
2022/11/04 06:36:22;;;;;;;2.08;1.13;;;;;;;18.40;56.62;100373.75;5128430;27;20071;-43
2022/11/04 06:38:47;;;;;;;1.90;1.20;;;;;;;18.39;56.71;100382.84;5126413;27;20026;-46
2022/11/04 06:41:14;;;;;;;1.85;1.10;;;;;;;18.38;56.90;100381.16;5125895;27;21029;-46
2022/11/04 06:43:40;;;;;;;2.22;1.55;;;;;;;18.39;56.74;100380.16;5135438;27;20046;-43
2022/11/04 06:46:05;;;;;;;4.10;1.40;;;;;;;18.40;57.19;100387.22;5126660;27;20074;-44
2022/11/04 06:48:31;;;;;;;3.65;1.55;;;;;;;18.41;56.67;100382.66;5135390;27;20107;-47
2022/11/04 06:50:59;;;;;;;1.67;1.50;;;;;;;18.41;56.61;100380.81;5129127;27;20039;-49
2022/11/04 06:53:26;;;;;;;1.98;1.60;;;;;;;18.41;56.65;100382.66;5131098;27;20031;-47
2022/11/04 06:55:52;;;;;;;2.65;1.55;;;;;;;18.41;56.68;100370.03;5135378;27;20106;-43
2022/11/04 06:58:18;;;;;;;1.58;1.40;;;;;;;18.42;56.96;100385.16;5129749;27;20039;-43
2022/11/04 07:00:44;;;;;;;4.50;1.80;;;;;;;18.38;56.92;100373.06;5130896;27;20069;-45
2022/11/04 07:03:09;;;;;;;2.72;1.75;;;;;;;18.44;57.01;100385.84;5125730;27;20050;-44
2022/11/04 07:05:35;;;;;;;2.72;1.40;;;;;;;18.46;56.83;100388.34;5127404;27;20012;-44
2022/11/04 07:08:00;;;;;;;2.67;1.75;;;;;;;18.47;56.88;100390.84;5129484;27;20019;-44
2022/11/04 07:10:25;;;;;;;2.33;1.50;;;;;;;18.47;56.53;100384.63;5131384;27;20584;-43
2022/11/04 07:12:51;;;;;;;3.20;1.60;;;;;;;18.46;56.53;100386.47;5133292;27;20019;-43
2022/11/04 07:15:16;;;;;;;2.92;1.52;;;;;;;18.42;56.49;100377.09;5132286;27;20045;-43
2022/11/04 07:17:43;;;;;;;2.47;1.58;;;;;;;18.46;56.47;100383.78;5133663;27;20018;-45
2022/11/04 07:20:11;;;;;;;2.17;1.58;;;;;;;18.47;56.74;100388.16;5135371;27;20082;-46
2022/11/04 07:22:37;;;;;;;2.00;1.77;;;;;;;18.36;56.26;100366.22;5125503;27;20015;-44
2022/11/04 07:25:02;;;;;;;3.00;1.85;;;;;;;18.51;56.60;100393.19;5125714;27;20067;-46
2022/11/04 07:27:27;;;;;;;2.83;1.45;;;;;;;18.49;56.62;100399.59;5124514;28;20027;-45
2022/11/04 07:29:53;;;;;;;2.40;1.60;;;;;;;18.53;56.29;100407.31;5124084;28;20031;-44
2022/11/04 07:32:18;;;;;;;3.30;1.70;;;;;;;18.53;56.95;100407.31;5124938;27;20094;-45
2022/11/04 07:34:43;;;;;;;2.25;2.00;;;;;;;18.54;56.28;100414.38;5123596;27;20487;-42
2022/11/04 07:37:08;;;;;;;2.70;1.73;;;;;;;18.55;56.23;100416.03;5128869;27;20530;-43
2022/11/04 07:39:34;;;;;;;3.15;1.55;;;;;;;18.56;56.20;100420.41;5134994;27;20111;-44
2022/11/04 07:41:59;;;;;;;3.15;2.05;;;;;;;18.58;56.30;100421.09;5133877;27;20044;-43
2022/11/04 07:44:24;;;;;;;2.13;1.70;;;;;;;18.59;56.67;100422.75;5128163;28;20031;-44
2022/11/04 07:46:50;;;;;;;4.05;1.65;;;;;;;18.49;56.39;100402.28;5135298;27;20043;-43
2022/11/04 07:49:15;;;;;;;1.98;1.52;;;;;;;18.65;56.10;100428.28;5132833;28;20016;-43
2022/11/04 07:51:41;;;;;;;2.75;2.00;;;;;;;18.67;56.25;100426.22;5135578;27;20046;-43
2022/11/04 07:54:06;;;;;;;5.28;2.05;;;;;;;18.69;56.17;100428.72;5140309;28;20031;-44
2022/11/04 07:56:31;;;;;;;4.00;1.77;;;;;;;18.68;55.81;100435.97;5126850;27;20029;-44
2022/11/04 07:58:57;;;;;;;2.63;1.77;;;;;;;18.68;56.02;100432.44;5132098;28;20044;-43
2022/11/04 08:01:23;;;;;;;6.38;1.95;;;;;;;18.59;55.81;100426.28;5125789;28;20030;-43
2022/11/04 08:03:49;;;;;;;3.63;1.83;;;;;;;18.47;56.19;100419.63;5123015;28;20024;-44
2022/11/04 08:06:16;;;;;;;4.88;2.22;;;;;;;18.68;56.04;100464.75;5126391;28;20379;-44
2022/11/04 08:08:42;;;;;;;3.92;1.73;;;;;;;18.67;56.18;100460.41;5131012;28;20015;-43
2022/11/04 08:11:10;;;;;;;2.42;1.90;;;;;;;18.67;55.93;100476.56;5138374;28;20043;-44
2022/11/04 08:13:36;;;;;;;2.03;1.83;;;;;;;18.67;56.17;100469.31;5133627;27;20035;-45
2022/11/04 08:16:03;;;;;;;2.70;1.80;;;;;;;18.67;55.95;100473.84;5125375;28;20020;-44
2022/11/04 08:18:30;;;;;;;3.47;1.70;;;;;;;18.67;55.80;100484.63;5128584;27;20075;-45
2022/11/04 08:20:56;;;;;;;2.13;1.88;;;;;;;18.69;56.27;100474.50;5131523;27;20030;-47
2022/11/04 08:23:21;;;;;;;5.13;1.73;;;;;;;18.65;55.99;100470.53;5129729;28;20023;-45
2022/11/04 08:25:46;;;;;;;3.53;2.08;;;;;;;18.71;55.81;100475.22;5126490;27;20089;-45
2022/11/04 08:28:16;;;;;;;2.30;1.80;;;;;;;18.73;56.01;100484.81;5128077;27;20083;-43
2022/11/04 08:30:54;;;;;;;3.03;1.73;;;;;;;18.73;55.61;100489.31;5127177;27;20027;-43
2022/11/04 08:33:20;;;;;;;3.17;1.70;;;;;;;18.76;55.76;100486.28;5140142;27;20031;-44
2022/11/04 08:35:45;;;;;;;5.78;1.92;;;;;;;18.73;55.67;100484.81;5130369;27;20019;-45
2022/11/04 08:38:10;;;;;;;1.98;1.55;;;;;;;18.77;55.67;100481.72;5140580;27;20614;-47
2022/11/04 08:40:36;;;;;;;2.17;1.85;;;;;;;18.78;55.56;100496.91;5132359;27;20030;-43
2022/11/04 08:43:01;;;;;;;2.13;1.70;;;;;;;18.77;55.74;100500.59;5134147;27;20046;-45
2022/11/04 08:45:27;;;;;;;2.08;1.52;;;;;;;18.79;55.44;100501.25;5131209;27;20035;-42
2022/11/04 08:47:52;;;;;;;4.20;2.22;;;;;;;18.79;55.34;100498.56;5137347;27;20463;-44
2022/11/04 08:50:18;;;;;;;3.42;1.60;;;;;;;18.78;55.86;100497.75;5127761;27;20046;-43
2022/11/04 08:52:43;;;;;;;2.95;1.98;;;;;;;18.81;55.79;100504.59;5138831;27;20031;-45
2022/11/04 08:55:09;;;;;;;2.10;1.77;;;;;;;18.81;55.71;100502.75;5131145;27;20015;-42
2022/11/04 08:57:34;;;;;;;4.22;1.50;;;;;;;18.89;55.53;100513.47;5132530;27;20073;-43
2022/11/04 08:59:59;;;;;;;3.50;2.05;;;;;;;18.93;55.43;100519.34;5127469;27;20027;-46
2022/11/04 09:02:25;;;;;;;1.67;1.40;;;;;;;18.93;55.29;100522.88;5128992;27;20032;-45
2022/11/04 09:04:50;;;;;;;2.13;1.90;;;;;;;18.91;55.18;100527.63;5125097;27;20057;-45
2022/11/04 09:07:15;;;;;;;2.05;1.50;;;;;;;18.93;55.47;100538.19;5136419;27;20593;-43
2022/11/04 09:09:40;;;;;;;3.65;1.70;;;;;;;18.90;55.18;100542.13;5133976;27;20039;-44
2022/11/04 09:12:09;;;;;;;2.65;1.80;;;;;;;18.90;55.13;100547.50;5137915;27;20075;-50
2022/11/04 09:14:35;;;;;;;;;;;;;;;18.92;55.10;100550.00;5132558;27;20031;-45
2022/11/04 09:17:00;;;;;;;3.65;2.00;;;;;;;18.93;55.36;100554.38;5133776;27;19922;-42
2022/11/04 09:19:25;;;;;;;4.68;1.88;;;;;;;18.93;55.01;100557.91;5136531;27;20066;-45
2022/11/04 09:21:51;;;;;;;3.00;1.75;;;;;;;18.95;55.20;100566.66;5139383;27;20056;-44
2022/11/04 09:24:16;;;;;;;2.45;1.52;;;;;;;18.94;55.08;100558.72;5135617;27;20020;-44
2022/11/04 09:26:43;;;;;;;3.63;1.70;;;;;;;18.94;55.20;100553.34;5140488;27;20475;-44
2022/11/04 09:29:09;;;;;;;3.83;1.42;;;;;;;18.94;55.15;100564.13;5135249;27;20079;-44
2022/11/04 09:31:34;;;;;;;2.35;1.55;;;;;;;18.95;55.34;100561.28;5131826;27;20095;-48
2022/11/04 09:33:59;;;;;;;2.42;1.38;;;;;;;18.94;55.13;100564.97;5137533;27;20034;-44
2022/11/04 09:36:25;;;;;;;2.90;1.70;;;;;;;18.93;55.14;100557.06;5133549;27;20392;-42
2022/11/04 09:38:51;;;;;;;3.97;2.00;;;;;;;18.97;55.21;100564.59;5130444;27;20061;-44
2022/11/04 09:42:01;;;;;;;2.97;1.73;;;;;;;18.99;54.92;100561.75;5127300;27;20019;-46
2022/11/04 09:44:46;;;;;;;2.42;1.75;;;;;;;19.04;54.91;100558.53;5127935;27;20094;-43
2022/11/04 09:47:12;;;;;;;3.85;1.88;;;;;;;19.07;54.68;100564.38;5130882;27;20093;-42
2022/11/04 09:49:40;;;;;;;2.13;1.55;;;;;;;19.04;54.98;100566.63;5131947;27;20035;-45
2022/11/04 09:52:14;;;;;;;2.72;1.90;;;;;;;19.12;54.50;100580.88;5130975;27;20135;-44
2022/11/04 09:54:49;;;;;;;4.80;2.20;;;;;;;19.14;54.46;100578.81;5129018;27;20027;-44
2022/11/04 09:57:17;;;;;;;3.25;2.10;;;;;;;19.17;54.42;100583.03;5136282;27;20030;-44
2022/11/04 09:59:42;;;;;;;12.68;3.50;;;;;;;19.12;54.09;100564.72;5138087;27;20090;-46
2022/11/04 10:02:22;;;;;;;20.70;4.20;;;;;;;19.06;53.83;100556.47;5142044;27;20035;-44
2022/11/04 10:05:25;;;;;;;26.08;5.13;;;;;;;19.21;53.91;100585.19;5137436;27;20036;-45
2022/11/04 10:07:59;;;;;;;27.33;5.35;;;;;;;19.19;53.59;100589.06;5125349;28;20031;-47
2022/11/04 10:10:47;;;;;;;30.33;5.63;;;;;;;19.10;53.92;100571.28;5125576;28;20024;-45
2022/11/04 10:13:46;;;;;;;21.30;4.40;;;;;;;19.12;53.75;100586.25;5130755;27;20020;-44
2022/11/04 10:16:24;;;;;;;22.00;4.63;;;;;;;19.10;53.54;100590.13;5131610;27;20019;-44
2022/11/04 10:19:03;;;;;;;22.55;5.40;;;;;;;18.87;53.89;100560.47;5130247;27;20121;-44
2022/11/04 10:21:32;;;;;;;21.20;5.60;;;;;;;19.10;53.91;100601.75;5135778;27;20537;-47
2022/11/04 10:24:37;;;;;;;24.23;4.90;;;;;;;19.11;53.85;100603.44;5138515;27;20030;-43
2022/11/04 10:27:04;;;;;;;30.52;6.40;;;;;;;19.13;53.60;100608.66;5135646;27;20019;-44
2022/11/04 10:29:36;;;;;;;22.75;4.45;;;;;;;19.13;54.13;100609.50;5123142;28;20037;-45
2022/11/04 10:32:05;;;;;;;19.35;4.60;;;;;;;19.15;53.79;100612.00;5134223;27;20414;-45
2022/11/04 10:34:38;;;;;;;20.17;5.68;;;;;;;19.08;54.07;100609.19;5140994;27;20018;-43
2022/11/04 10:37:09;;;;;;;34.35;7.00;;;;;;;19.14;53.62;100619.25;5134014;27;20044;-44
2022/11/04 10:39:36;;;;;;;21.10;4.60;;;;;;;19.14;53.76;100621.94;5129532;27;20506;-45
2022/11/04 10:42:03;;;;;;;32.83;6.25;;;;;;;19.17;53.90;100623.47;5134861;27;20053;-47
2022/11/04 10:44:32;;;;;;;27.80;6.07;;;;;;;19.14;54.03;100610.31;5124349;27;20027;-45
2022/11/04 10:47:31;;;;;;;28.13;6.80;;;;;;;19.25;54.08;100636.88;5137366;27;20405;-43
2022/11/04 10:50:21;;;;;;;27.23;6.07;;;;;;;19.29;53.75;100632.81;5122307;28;20391;-45
2022/11/04 10:52:46;;;;;;;34.38;5.72;;;;;;;19.34;53.91;100629.59;5137384;27;20035;-46
2022/11/04 10:55:18;;;;;;;23.85;5.75;;;;;;;19.36;53.99;100620.28;5139247;27;20065;-46
2022/11/04 10:57:43;;;;;;;22.55;5.57;;;;;;;19.37;53.87;100619.28;5135990;27;20023;-45
2022/11/04 11:00:39;;;;;;;28.95;5.03;;;;;;;19.39;53.68;100611.00;5126268;27;20020;-45
2022/11/04 11:03:33;;;;;;;25.73;5.57;;;;;;;19.41;53.60;100612.53;5124515;28;20058;-46
2022/11/04 11:06:21;;;;;;;24.77;5.22;;;;;;;19.42;53.58;100610.66;5120051;27;20087;-45
2022/11/04 11:08:47;;;;;;;18.17;5.13;;;;;;;19.42;53.64;100619.59;5125840;27;20015;-44
2022/11/04 11:11:14;;;;;;;19.10;4.72;;;;;;;19.38;53.96;100626.34;5126716;27;20271;-46
2022/11/04 11:13:42;;;;;;;20.75;5.57;;;;;;;19.35;54.07;100632.09;5124416;27;20019;-44
2022/11/04 11:16:09;;;;;;;27.20;4.25;;;;;;;19.35;54.47;100642.03;5127669;27;20081;-44
2022/11/04 11:18:36;;;;;;;23.80;5.22;;;;;;;19.27;54.54;100628.63;5127070;27;20028;-44
2022/11/04 11:21:10;;;;;;;20.65;5.30;;;;;;;19.23;54.52;100623.56;5135697;27;20027;-45
2022/11/04 11:23:43;;;;;;;23.50;4.63;;;;;;;19.36;54.60;100635.63;5125471;27;20049;-48
2022/11/04 11:26:12;;;;;;;19.08;4.28;;;;;;;19.37;54.73;100642.69;5124983;27;20083;-46
2022/11/04 11:28:38;;;;;;;;;;;;;;;19.41;54.44;100646.72;5130401;27;20019;-45
2022/11/04 11:31:13;;;;;;;26.02;5.30;;;;;;;19.35;54.42;100634.78;5133893;27;19911;-44
2022/11/04 11:33:54;;;;;;;21.83;4.38;;;;;;;19.44;54.43;100649.88;5124221;27;20027;-44
2022/11/04 11:36:26;;;;;;;15.88;4.85;;;;;;;19.47;54.63;100652.25;5133319;27;20016;-44
2022/11/04 11:39:04;;;;;;;17.38;4.95;;;;;;;19.53;54.88;100664.16;5137782;27;20043;-46
2022/11/04 11:41:32;;;;;;;16.40;4.40;;;;;;;19.55;54.88;100669.41;5135127;27;20588;-46
2022/11/04 11:44:05;;;;;;;12.20;3.63;;;;;;;19.56;54.72;100671.91;5137773;27;20054;-47
2022/11/04 11:46:32;;;;;;;12.88;3.75;;;;;;;19.50;54.62;100664.53;5115400;28;20078;-48
2022/11/04 11:49:00;;;;;;;14.43;4.15;;;;;;;19.59;54.69;100679.66;5134056;27;20056;-46
2022/11/04 11:51:38;;;;;;;14.93;4.38;;;;;;;19.60;55.14;100680.47;5124986;28;20020;-44
2022/11/04 11:54:22;;;;;;;11.07;3.73;;;;;;;19.60;54.93;100677.78;5125881;28;20031;-48
2022/11/04 11:56:55;;;;;;;13.90;3.83;;;;;;;19.60;55.09;100678.63;5122896;28;20268;-44
2022/11/04 11:59:44;;;;;;;16.05;4.90;;;;;;;19.60;54.82;100680.47;5124601;28;20018;-46
2022/11/04 12:02:24;;;;;;;17.40;4.03;;;;;;;19.59;54.89;100678.81;5134750;27;20020;-43
2022/11/04 12:04:50;;;;;;;12.25;4.57;;;;;;;19.58;55.10;100685.19;5130703;27;20031;-45
2022/11/04 12:07:33;;;;;;;13.63;4.28;;;;;;;19.56;55.20;100682.69;5131476;27;20032;-46